createdAt,value
2018-11-29T00:01:01.388Z,36.99
2018-11-29T00:03:27.413Z,37.08
2018-11-29T00:05:53.419Z,37.24
2018-11-29T00:08:19.390Z,37.18
2018-11-29T00:10:45.390Z,37.37
2018-11-29T00:13:11.373Z,37.40
2018-11-29T00:15:37.384Z,37.12
2018-11-29T00:18:03.388Z,37.51
2018-11-29T00:20:29.369Z,37.24
2018-11-29T00:22:55.354Z,37.10
2018-11-29T00:25:21.425Z,37.05
2018-11-29T00:27:47.440Z,37.45
2018-11-29T00:30:13.485Z,37.00
2018-11-29T00:32:39.478Z,36.96
2018-11-29T00:35:05.452Z,37.00
2018-11-29T00:37:31.472Z,37.18
2018-11-29T00:39:57.512Z,36.87
2018-11-29T00:42:23.532Z,36.87
2018-11-29T00:44:49.532Z,37.15
2018-11-29T00:47:15.517Z,36.84
2018-11-29T00:49:41.533Z,36.96
2018-11-29T00:52:07.537Z,36.68
2018-11-29T00:54:33.556Z,36.97
2018-11-29T00:56:59.569Z,36.68
2018-11-29T00:59:25.571Z,37.18
2018-11-29T01:01:51.565Z,37.07
2018-11-29T01:04:17.566Z,37.05
2018-11-29T01:06:43.581Z,36.98
2018-11-29T01:09:09.560Z,36.94
2018-11-29T01:11:35.578Z,37.15
2018-11-29T01:14:01.580Z,36.64
2018-11-29T01:16:27.578Z,36.68
2018-11-29T01:18:53.600Z,37.17
2018-11-29T01:21:19.614Z,36.96
2018-11-29T01:23:45.597Z,36.64
2018-11-29T01:26:11.574Z,36.87
2018-11-29T01:28:37.598Z,36.97
2018-11-29T01:31:03.586Z,36.82
2018-11-29T01:33:29.602Z,36.99
2018-11-29T01:35:55.608Z,36.93
2018-11-29T01:38:21.613Z,36.67
2018-11-29T01:40:47.596Z,36.62
2018-11-29T01:43:13.613Z,36.70
2018-11-29T01:45:39.626Z,36.50
2018-11-29T01:48:05.634Z,36.78
2018-11-29T01:50:31.628Z,36.81
2018-11-29T01:52:57.634Z,36.49
2018-11-29T01:55:23.618Z,36.73
2018-11-29T01:57:49.628Z,36.86
2018-11-29T02:00:15.638Z,37.29
2018-11-29T02:02:41.620Z,36.40
2018-11-29T02:05:07.600Z,36.52
2018-11-29T02:07:33.622Z,36.77
2018-11-29T02:09:59.595Z,36.34
2018-11-29T02:12:25.609Z,36.47
2018-11-29T02:14:51.632Z,36.64
2018-11-29T02:17:17.627Z,36.71
2018-11-29T02:19:43.608Z,36.60
2018-11-29T02:22:09.629Z,36.52
2018-11-29T02:24:35.691Z,36.43
2018-11-29T02:27:01.688Z,36.36
2018-11-29T02:29:27.729Z,36.38
2018-11-29T02:31:53.688Z,36.28
2018-11-29T02:34:19.697Z,36.13
2018-11-29T02:36:45.711Z,36.57
2018-11-29T02:39:11.735Z,36.47
2018-11-29T02:41:37.748Z,36.20
2018-11-29T02:44:03.759Z,36.31
2018-11-29T02:46:29.769Z,36.40
2018-11-29T02:48:55.749Z,36.14
2018-11-29T02:51:21.762Z,36.16
2018-11-29T02:53:47.779Z,36.70
2018-11-29T02:56:13.761Z,36.38
2018-11-29T02:58:39.749Z,36.33
2018-11-29T03:01:05.748Z,36.34
2018-11-29T03:03:31.736Z,36.13
2018-11-29T03:05:57.719Z,36.79
2018-11-29T03:08:23.721Z,36.15
2018-11-29T03:10:49.717Z,36.22
2018-11-29T03:13:15.710Z,36.24
2018-11-29T03:15:41.713Z,36.12
2018-11-29T03:18:07.722Z,36.34
2018-11-29T03:20:33.718Z,36.18
2018-11-29T03:22:59.734Z,36.33
2018-11-29T03:25:25.725Z,36.41
2018-11-29T03:27:51.713Z,36.84
2018-11-29T03:30:17.729Z,36.28
2018-11-29T03:32:43.776Z,36.57
2018-11-29T03:35:09.761Z,36.35
2018-11-29T03:37:35.775Z,36.79
2018-11-29T03:40:01.814Z,36.72
2018-11-29T03:42:27.799Z,36.49
2018-11-29T03:44:53.802Z,36.60
2018-11-29T03:47:19.799Z,36.25
2018-11-29T03:49:45.802Z,36.34
2018-11-29T03:52:11.810Z,36.30
2018-11-29T03:54:37.797Z,36.43
2018-11-29T03:57:03.795Z,36.61
2018-11-29T03:59:29.824Z,36.32
2018-11-29T04:01:55.839Z,36.62
2018-11-29T04:04:21.854Z,36.91
2018-11-29T04:06:47.857Z,36.88
2018-11-29T04:09:13.844Z,36.47
2018-11-29T04:11:39.854Z,36.54
2018-11-29T04:14:05.849Z,36.81
2018-11-29T04:16:31.841Z,36.34
2018-11-29T04:18:57.847Z,36.62
2018-11-29T04:21:23.866Z,36.38
2018-11-29T04:23:49.862Z,36.60
2018-11-29T04:26:15.874Z,36.34
2018-11-29T04:28:41.894Z,36.63
2018-11-29T04:31:07.908Z,36.69
2018-11-29T04:33:33.893Z,36.73
2018-11-29T04:35:59.909Z,36.50
2018-11-29T04:38:25.942Z,36.41
2018-11-29T04:40:51.987Z,36.51
2018-11-29T04:43:17.995Z,36.71
2018-11-29T04:45:44.012Z,36.51
2018-11-29T04:48:10.176Z,36.70
2018-11-29T04:50:36.055Z,36.72
2018-11-29T04:53:02.044Z,36.23
2018-11-29T04:55:28.055Z,36.37
2018-11-29T04:57:54.078Z,36.58
2018-11-29T05:00:20.081Z,36.27
2018-11-29T05:02:46.082Z,36.46
2018-11-29T05:05:12.076Z,36.72
2018-11-29T05:07:38.063Z,36.76
2018-11-29T05:10:04.104Z,36.32
2018-11-29T05:12:30.103Z,36.27
2018-11-29T05:14:56.093Z,36.50
2018-11-29T05:17:22.134Z,36.87
2018-11-29T05:19:48.155Z,36.42
2018-11-29T05:22:14.199Z,35.96
2018-11-29T05:24:40.171Z,36.33
2018-11-29T05:27:06.198Z,36.40
2018-11-29T05:29:32.208Z,36.65
2018-11-29T05:31:58.209Z,36.70
2018-11-29T05:34:24.232Z,36.52
2018-11-29T05:36:50.226Z,36.53
2018-11-29T05:39:16.219Z,36.63
2018-11-29T05:41:42.243Z,37.02
2018-11-29T05:44:08.257Z,37.33
2018-11-29T05:46:34.245Z,37.20
2018-11-29T05:49:00.282Z,37.17
2018-11-29T05:51:26.314Z,37.14
2018-11-29T05:53:52.344Z,37.34
2018-11-29T05:56:18.360Z,36.90
2018-11-29T05:58:44.384Z,37.55
2018-11-29T06:01:10.374Z,37.89
2018-11-29T06:03:36.377Z,38.18
2018-11-29T06:06:02.431Z,38.11
2018-11-29T06:08:28.427Z,38.28
2018-11-29T06:10:54.454Z,38.35
2018-11-29T06:13:20.477Z,38.44
2018-11-29T06:15:46.483Z,38.56
2018-11-29T06:18:12.455Z,38.47
2018-11-29T06:20:38.588Z,38.57
2018-11-29T06:23:05.241Z,38.40
2018-11-29T06:25:30.568Z,38.34
2018-11-29T06:27:56.636Z,38.50
2018-11-29T06:30:22.635Z,38.24
2018-11-29T06:32:48.632Z,38.37
2018-11-29T06:35:14.692Z,38.52
2018-11-29T06:37:40.668Z,38.54
2018-11-29T06:40:06.655Z,38.39
2018-11-29T06:45:07.826Z,38.38
2018-11-29T06:47:33.843Z,38.31
2018-11-29T06:49:59.884Z,38.28
2018-11-29T06:52:25.907Z,38.32
2018-11-29T06:54:51.976Z,38.21
2018-11-29T06:57:17.997Z,38.08
2018-11-29T06:59:43.998Z,38.23
2018-11-29T07:02:10.061Z,38.11
2018-11-29T07:04:36.075Z,38.03
2018-11-29T07:07:02.166Z,38.12
2018-11-29T07:09:28.273Z,38.61
2018-11-29T07:11:54.299Z,38.31
2018-11-29T07:14:20.308Z,38.45
2018-11-29T07:16:46.296Z,38.65
2018-11-29T07:19:15.049Z,38.79
2018-11-29T07:21:38.321Z,38.90
2018-11-29T07:24:04.343Z,38.76
2018-11-29T07:26:30.342Z,38.83
2018-11-29T07:28:56.352Z,38.73
2018-11-29T07:31:22.355Z,39.06
2018-11-29T07:33:48.379Z,39.12
2018-11-29T07:36:14.425Z,39.41
2018-11-29T07:38:40.418Z,39.54
2018-11-29T07:41:06.433Z,39.55
2018-11-29T07:43:32.458Z,39.55
2018-11-29T07:45:58.473Z,39.54
2018-11-29T07:48:24.496Z,39.50
2018-11-29T07:50:50.473Z,39.48
2018-11-29T07:53:16.485Z,39.29
2018-11-29T07:55:42.533Z,39.21
2018-11-29T07:58:08.528Z,39.35
2018-11-29T08:00:34.537Z,39.37
2018-11-29T08:03:00.555Z,38.58
2018-11-29T08:05:26.629Z,38.39
2018-11-29T08:07:52.634Z,38.62
2018-11-29T08:10:18.641Z,38.09
2018-11-29T08:12:44.651Z,38.06
2018-11-29T08:15:10.683Z,37.64
2018-11-29T08:17:36.667Z,37.58
2018-11-29T08:20:02.670Z,37.67
2018-11-29T08:22:28.668Z,37.32
2018-11-29T08:24:54.710Z,37.18
2018-11-29T08:27:20.735Z,37.49
2018-11-29T08:29:46.762Z,37.12
2018-11-29T08:32:12.753Z,36.51
2018-11-29T08:34:38.735Z,37.06
2018-11-29T08:37:04.734Z,36.66
2018-11-29T08:39:30.717Z,36.25
2018-11-29T08:41:56.725Z,36.91
2018-11-29T08:44:22.738Z,36.78
2018-11-29T08:46:48.766Z,37.47
2018-11-29T08:49:14.776Z,37.37
2018-11-29T08:51:40.781Z,37.46
2018-11-29T08:54:06.781Z,37.88
2018-11-29T08:56:32.776Z,37.96
2018-11-29T08:58:58.786Z,37.78
2018-11-29T09:01:24.787Z,37.78
2018-11-29T09:03:50.795Z,37.46
2018-11-29T09:06:16.816Z,36.37
2018-11-29T09:08:42.827Z,36.00
2018-11-29T09:11:08.889Z,35.83
2018-11-29T09:13:34.890Z,35.85
2018-11-29T09:16:00.876Z,35.79
2018-11-29T09:18:27.139Z,35.55
2018-11-29T09:20:53.091Z,35.99
2018-11-29T09:23:19.112Z,35.72
2018-11-29T09:25:45.112Z,35.86
2018-11-29T09:28:11.174Z,35.67
2018-11-29T09:30:37.185Z,35.96
2018-11-29T09:33:03.189Z,35.95
2018-11-29T09:35:29.249Z,35.85
2018-11-29T09:37:55.227Z,35.93
2018-11-29T09:40:21.295Z,35.87
2018-11-29T09:42:47.290Z,35.96
2018-11-29T09:45:13.341Z,36.23
2018-11-29T09:47:39.375Z,36.20
2018-11-29T09:50:05.388Z,35.92
2018-11-29T09:52:31.401Z,36.28
2018-11-29T09:54:57.414Z,36.32
2018-11-29T09:57:23.459Z,36.29
2018-11-29T09:59:49.898Z,36.22
2018-11-29T10:02:15.924Z,36.53
2018-11-29T10:04:41.994Z,36.35
2018-11-29T10:07:08.014Z,36.23
2018-11-29T10:09:34.003Z,36.62
2018-11-29T10:12:00.001Z,36.47
2018-11-29T10:14:26.003Z,36.26
2018-11-29T10:16:51.992Z,36.23
2018-11-29T10:19:18.090Z,36.23
2018-11-29T10:21:44.082Z,36.05
2018-11-29T10:24:10.067Z,36.06
2018-11-29T10:26:36.075Z,35.35
2018-11-29T10:29:02.081Z,35.61
2018-11-29T10:31:28.146Z,34.83
2018-11-29T10:33:54.104Z,34.65
2018-11-29T10:36:20.134Z,34.90
2018-11-29T10:38:46.139Z,34.78
2018-11-29T10:41:12.930Z,34.99
2018-11-29T10:43:38.189Z,35.14
2018-11-29T10:46:04.204Z,35.29
2018-11-29T10:48:30.190Z,35.51
2018-11-29T10:50:56.235Z,35.34
2018-11-29T10:53:22.239Z,35.16
2018-11-29T10:55:48.567Z,35.12
2018-11-29T10:58:14.579Z,35.20
2018-11-29T11:00:40.574Z,35.16
2018-11-29T11:03:06.569Z,35.54
2018-11-29T11:05:32.630Z,35.40
2018-11-29T11:07:58.645Z,34.83
2018-11-29T11:10:24.641Z,35.25
2018-11-29T11:12:50.635Z,35.24
2018-11-29T11:15:16.638Z,35.13
2018-11-29T11:17:42.682Z,35.05
2018-11-29T11:20:08.707Z,34.96
2018-11-29T11:22:34.735Z,35.62
2018-11-29T11:25:00.737Z,35.24
2018-11-29T11:27:26.797Z,35.38
2018-11-29T11:29:52.775Z,35.53
2018-11-29T11:32:18.845Z,35.17
2018-11-29T11:34:44.838Z,35.29
2018-11-29T11:37:10.845Z,35.68
2018-11-29T11:39:36.858Z,35.09
2018-11-29T11:42:02.898Z,35.07
2018-11-29T11:44:28.951Z,35.35
2018-11-29T11:46:54.973Z,35.70
2018-11-29T11:49:21.006Z,35.00
2018-11-29T11:51:47.301Z,34.94
2018-11-29T11:54:13.060Z,35.59
2018-11-29T11:56:39.054Z,35.07
2018-11-29T11:59:05.081Z,35.18
2018-11-29T12:01:31.135Z,35.04
2018-11-29T12:03:57.197Z,35.13
2018-11-29T12:06:23.320Z,34.91
2018-11-29T12:08:49.351Z,35.11
2018-11-29T12:11:15.371Z,34.92
2018-11-29T12:13:41.362Z,35.37
2018-11-29T12:16:07.371Z,35.17
2018-11-29T12:18:33.388Z,35.41
2018-11-29T12:20:59.410Z,35.12
2018-11-29T12:23:25.443Z,35.43
2018-11-29T12:25:51.519Z,35.03
2018-11-29T12:28:17.544Z,35.37
2018-11-29T12:30:43.569Z,35.80
2018-11-29T12:33:09.597Z,35.83
2018-11-29T12:35:35.581Z,36.07
2018-11-29T12:38:01.702Z,35.96
2018-11-29T12:40:27.666Z,36.22
2018-11-29T12:42:53.655Z,36.17
2018-11-29T12:45:19.646Z,35.95
2018-11-29T12:47:45.655Z,35.98
2018-11-29T12:50:11.739Z,36.19
2018-11-29T12:52:37.759Z,35.62
2018-11-29T12:55:03.786Z,36.14
2018-11-29T12:57:29.823Z,36.16
2018-11-29T12:59:55.826Z,35.86
2018-11-29T13:02:21.950Z,35.71
2018-11-29T13:04:47.973Z,35.96
2018-11-29T13:07:13.988Z,35.76
2018-11-29T13:09:40.008Z,35.88
2018-11-29T13:12:06.035Z,35.90
2018-11-29T13:14:32.055Z,35.96
2018-11-29T13:16:58.083Z,35.20
2018-11-29T13:19:24.136Z,35.48
2018-11-29T13:21:50.128Z,35.59
2018-11-29T13:24:16.116Z,35.84
2018-11-29T13:26:42.152Z,35.62
2018-11-29T13:29:08.152Z,35.49
2018-11-29T13:31:34.150Z,35.92
2018-11-29T13:34:00.137Z,35.32
2018-11-29T13:36:26.300Z,35.15
2018-11-29T13:38:52.282Z,35.64
2018-11-29T13:41:18.346Z,35.02
2018-11-29T13:43:44.352Z,35.36
2018-11-29T13:46:10.382Z,35.05
2018-11-29T13:48:36.583Z,34.88
2018-11-29T13:51:02.601Z,34.74
2018-11-29T13:53:28.629Z,34.96
2018-11-29T13:55:54.746Z,35.23
2018-11-29T13:58:20.755Z,35.20
2018-11-29T14:00:46.816Z,35.09
2018-11-29T14:03:12.852Z,35.38
2018-11-29T14:05:39.047Z,35.03
2018-11-29T14:08:05.041Z,35.32
2018-11-29T14:10:31.093Z,35.23
2018-11-29T14:12:57.145Z,35.33
2018-11-29T14:15:23.116Z,35.48
2018-11-29T14:17:49.242Z,35.57
2018-11-29T14:20:15.285Z,35.42
2018-11-29T14:22:41.299Z,35.53
2018-11-29T14:25:07.298Z,35.77
2018-11-29T14:27:33.372Z,35.80
2018-11-29T14:29:59.415Z,35.94
2018-11-29T14:32:25.465Z,35.87
2018-11-29T14:34:51.998Z,35.78
2018-11-29T14:37:17.605Z,35.71
2018-11-29T14:39:43.638Z,35.84
2018-11-29T14:42:09.648Z,36.18
2018-11-29T14:44:35.669Z,35.99
2018-11-29T14:47:01.674Z,35.95
2018-11-29T14:49:27.713Z,35.97
2018-11-29T14:51:53.751Z,35.99
2018-11-29T14:54:19.771Z,36.00
2018-11-29T14:56:45.793Z,35.87
2018-11-29T14:59:11.806Z,36.03
2018-11-29T15:01:37.836Z,35.97
2018-11-29T15:04:03.866Z,36.02
2018-11-29T15:06:29.911Z,36.20
2018-11-29T15:08:56.326Z,35.98
2018-11-29T15:11:22.378Z,36.52
2018-11-29T15:13:48.408Z,36.31
2018-11-29T15:16:14.416Z,36.74
2018-11-29T15:18:40.462Z,36.59
2018-11-29T15:21:06.491Z,36.85
2018-11-29T15:23:32.509Z,36.63
2018-11-29T15:26:00.131Z,36.56
2018-11-29T15:28:27.815Z,36.81
2018-11-29T15:30:54.002Z,36.65
2018-11-29T15:33:20.116Z,36.85
2018-11-29T15:35:46.100Z,36.69
2018-11-29T15:38:12.121Z,36.71
2018-11-29T15:40:38.105Z,36.95
2018-11-29T15:43:04.683Z,36.72
2018-11-29T15:45:30.149Z,36.97
2018-11-29T15:47:56.223Z,36.80
2018-11-29T15:50:22.231Z,36.86
2018-11-29T15:52:48.277Z,36.64
2018-11-29T15:55:14.298Z,36.83
2018-11-29T15:57:40.343Z,36.62
2018-11-29T16:00:06.408Z,36.57
2018-11-29T16:02:32.500Z,36.81
2018-11-29T16:04:58.646Z,36.81
2018-11-29T16:07:24.760Z,37.11
2018-11-29T16:09:50.881Z,36.89
2018-11-29T16:12:16.889Z,36.58
2018-11-29T16:14:43.587Z,36.75
2018-11-29T16:17:08.924Z,36.47
2018-11-29T16:19:35.002Z,36.47
2018-11-29T16:22:01.010Z,36.26
2018-11-29T16:24:27.155Z,36.56
2018-11-29T16:26:53.265Z,35.84
2018-11-29T16:29:19.280Z,36.08
2018-11-29T16:31:45.265Z,36.30
2018-11-29T16:34:11.249Z,36.11
2018-11-29T16:36:37.280Z,36.32
2018-11-29T16:39:03.275Z,36.48
2018-11-29T16:41:29.399Z,36.32
2018-11-29T16:43:55.390Z,36.09
2018-11-29T16:46:21.385Z,36.04
2018-11-29T16:48:47.370Z,35.81
2018-11-29T16:51:13.397Z,35.87
2018-11-29T16:53:39.522Z,36.21
2018-11-29T16:56:05.507Z,36.32
2018-11-29T16:58:31.569Z,36.31
2018-11-29T17:00:57.572Z,36.31
2018-11-29T17:03:23.583Z,36.29
2018-11-29T17:05:49.613Z,36.37
2018-11-29T17:08:15.612Z,36.73
2018-11-29T17:10:41.643Z,36.67
2018-11-29T17:13:07.721Z,36.91
2018-11-29T17:15:33.727Z,36.90
2018-11-29T17:17:59.873Z,36.80
2018-11-29T17:20:26.001Z,36.64
2018-11-29T17:22:52.007Z,36.68
2018-11-29T17:25:18.041Z,36.76
2018-11-29T17:27:44.097Z,36.71
2018-11-29T17:30:10.107Z,36.92
2018-11-29T17:32:36.329Z,37.02
2018-11-29T17:35:02.323Z,36.89
2018-11-29T17:37:28.383Z,36.77
2018-11-29T17:39:54.736Z,36.95
2018-11-29T17:42:20.829Z,36.85
2018-11-29T17:44:46.845Z,37.05
2018-11-29T17:47:12.990Z,36.97
2018-11-29T17:49:39.048Z,37.09
2018-11-29T17:52:05.134Z,36.83
2018-11-29T17:54:31.204Z,36.84
2018-11-29T17:56:57.190Z,37.35
2018-11-29T17:59:23.483Z,37.70
2018-11-29T18:01:50.321Z,37.56
2018-11-29T18:04:16.343Z,37.43
2018-11-29T18:06:42.343Z,37.54
2018-11-29T18:09:08.355Z,37.39
2018-11-29T18:11:34.346Z,37.29
2018-11-29T18:14:00.357Z,37.45
2018-11-29T18:16:35.667Z,37.51
2018-11-29T18:19:01.742Z,37.43
2018-11-29T18:21:28.037Z,37.45
2018-11-29T18:23:54.039Z,37.58
2018-11-29T18:26:20.039Z,37.53
2018-11-29T18:28:46.049Z,37.49
2018-11-29T18:31:12.080Z,37.62
2018-11-29T18:33:38.097Z,37.51
2018-11-29T18:36:04.110Z,37.67
2018-11-29T18:38:30.137Z,37.69
2018-11-29T18:40:56.305Z,37.73
2018-11-29T18:43:22.676Z,37.82
2018-11-29T18:45:48.688Z,37.74
2018-11-29T18:48:14.682Z,37.81
2018-11-29T18:50:40.888Z,37.94
2018-11-29T18:53:06.900Z,37.97
2018-11-29T18:55:33.797Z,37.56
2018-11-29T18:57:59.891Z,37.56
2018-11-29T19:00:26.072Z,37.78
2018-11-29T19:02:56.746Z,37.90
2018-11-29T19:05:18.613Z,37.69
2018-11-29T19:07:44.707Z,37.69
2018-11-29T19:10:10.728Z,37.81
2018-11-29T19:12:36.797Z,37.71
2018-11-29T19:15:03.221Z,37.42
2018-11-29T19:17:29.298Z,37.34
2018-11-29T19:19:55.352Z,37.44
2018-11-29T19:22:21.351Z,37.31
2018-11-29T19:24:47.362Z,37.22
2018-11-29T19:27:13.516Z,37.15
2018-11-29T19:29:39.558Z,37.20
2018-11-29T19:32:05.563Z,37.33
2018-11-29T19:34:32.157Z,37.36
2018-11-29T19:36:58.436Z,37.39
2018-11-29T19:39:24.548Z,37.41
2018-11-29T19:41:50.646Z,37.26
2018-11-29T19:44:16.670Z,37.26
2018-11-29T19:46:45.534Z,37.37
2018-11-29T19:49:11.896Z,37.54
2018-11-29T19:51:37.831Z,37.32
2018-11-29T19:54:04.520Z,37.39
2018-11-29T19:56:30.521Z,37.46
2018-11-29T19:58:56.539Z,37.52
2018-11-29T20:01:22.595Z,37.54
2018-11-29T20:03:49.473Z,37.69
2018-11-29T20:06:15.511Z,37.39
2018-11-29T20:08:41.544Z,37.41
2018-11-29T20:11:07.694Z,37.55
2018-11-29T20:13:33.710Z,37.68
2018-11-29T20:15:59.707Z,37.54
2018-11-29T20:18:25.709Z,37.53
2018-11-29T20:20:51.719Z,37.55
2018-11-29T20:23:17.776Z,37.51
2018-11-29T20:25:43.965Z,37.69
2018-11-29T20:28:09.929Z,37.83
2018-11-29T20:30:35.939Z,37.84
2018-11-29T20:33:01.987Z,37.67
2018-11-29T20:35:27.963Z,37.73
2018-11-29T20:37:56.404Z,37.51
2018-11-29T20:40:22.405Z,37.59
2018-11-29T20:42:48.443Z,37.71
2018-11-29T20:45:14.437Z,37.79
2018-11-29T20:47:40.557Z,37.70
2018-11-29T20:50:06.565Z,37.87
2018-11-29T20:52:37.447Z,37.58
2018-11-29T20:55:03.502Z,37.76
2018-11-29T20:57:29.433Z,37.74
2018-11-29T20:59:55.496Z,37.85
2018-11-29T21:02:21.460Z,37.78
2018-11-29T21:04:47.538Z,37.75
2018-11-29T21:07:14.215Z,38.03
2018-11-29T21:09:40.196Z,37.95
2018-11-29T21:12:06.215Z,37.95
2018-11-29T21:14:32.206Z,37.76
2018-11-29T21:16:58.291Z,37.82
2018-11-29T21:19:24.317Z,37.83
2018-11-29T21:21:50.862Z,37.83
2018-11-29T21:24:17.394Z,37.90
2018-11-29T21:26:43.399Z,37.81
2018-11-29T21:29:09.522Z,37.38
2018-11-29T21:31:35.537Z,37.43
2018-11-29T21:34:01.847Z,37.46
2018-11-29T21:36:28.208Z,37.41
2018-11-29T21:38:54.236Z,37.61
2018-11-29T21:41:20.557Z,37.56
2018-11-29T21:43:46.578Z,37.43
2018-11-29T21:46:12.597Z,37.62
2018-11-29T21:48:38.844Z,37.74
2018-11-29T21:51:04.857Z,37.53
2018-11-29T21:53:30.984Z,37.55
2018-11-29T21:55:56.988Z,37.70
2018-11-29T21:58:23.002Z,37.31
2018-11-29T22:00:49.036Z,37.12
2018-11-29T22:03:15.171Z,37.26
2018-11-29T22:05:41.181Z,37.13
2018-11-29T22:08:07.186Z,37.15
2018-11-29T22:10:33.182Z,37.12
2018-11-29T22:12:59.273Z,37.36
2018-11-29T22:15:25.396Z,37.01
2018-11-29T22:17:51.391Z,37.36
2018-11-29T22:20:17.448Z,37.12
2018-11-29T22:22:43.447Z,37.02
2018-11-29T22:25:11.935Z,36.75
2018-11-29T22:27:38.543Z,37.10
2018-11-29T22:30:04.620Z,36.76
2018-11-29T22:32:30.695Z,37.00
2018-11-29T22:34:56.607Z,36.90
2018-11-29T22:37:22.655Z,36.58
2018-11-29T22:39:48.665Z,36.60
2018-11-29T22:42:14.702Z,36.56
2018-11-29T22:44:40.719Z,36.83
2018-11-29T22:47:06.707Z,36.95
2018-11-29T22:49:32.743Z,36.89
2018-11-29T22:51:58.824Z,36.59
2018-11-29T22:54:24.840Z,36.50
2018-11-29T22:56:50.851Z,36.50
2018-11-29T22:59:16.868Z,36.27
2018-11-29T23:01:42.892Z,36.21
2018-11-29T23:04:08.926Z,36.33
2018-11-29T23:06:34.975Z,36.24
2018-11-29T23:09:00.995Z,36.29
2018-11-29T23:11:26.979Z,36.69
2018-11-29T23:13:52.977Z,36.40
2018-11-29T23:16:19.242Z,36.13
2018-11-29T23:18:45.233Z,36.22
2018-11-29T23:21:11.217Z,36.16
2018-11-29T23:23:37.206Z,35.92
2018-11-29T23:26:03.210Z,35.93
2018-11-29T23:28:29.210Z,36.06
2018-11-29T23:30:55.246Z,35.89
2018-11-29T23:33:21.253Z,36.04
2018-11-29T23:35:47.385Z,35.96
2018-11-29T23:38:13.368Z,36.14
2018-11-29T23:40:39.616Z,36.32
2018-11-29T23:43:05.478Z,35.82
2018-11-29T23:45:31.460Z,36.13
2018-11-29T23:47:57.467Z,36.31
2018-11-29T23:50:23.474Z,35.67
2018-11-29T23:52:49.455Z,35.74
2018-11-29T23:55:15.439Z,35.71
2018-11-29T23:57:41.471Z,35.50
